createdAt,value
2023-05-19T00:02:20.925Z,4.68
2023-05-19T00:04:49.537Z,4.63
2023-05-19T00:07:20.880Z,4.63
2023-05-19T00:09:48.842Z,4.90
2023-05-19T00:12:17.103Z,4.85
2023-05-19T00:14:45.102Z,4.78
2023-05-19T00:17:13.117Z,4.70
2023-05-19T00:19:40.608Z,4.85
2023-05-19T00:22:08.060Z,4.63
2023-05-19T00:24:36.897Z,5.10
2023-05-19T00:27:04.724Z,4.90
2023-05-19T00:29:32.795Z,5.35
2023-05-19T00:32:00.316Z,4.75
2023-05-19T00:34:27.873Z,4.97
2023-05-19T00:36:55.332Z,4.65
2023-05-19T00:39:22.851Z,4.65
2023-05-19T00:41:51.708Z,5.35
2023-05-19T00:44:19.211Z,5.53
2023-05-19T00:46:46.724Z,6.07
2023-05-19T00:49:14.239Z,5.63
2023-05-19T00:51:42.010Z,5.18
2023-05-19T00:54:09.606Z,5.30
2023-05-19T00:56:37.147Z,5.82
2023-05-19T00:59:06.348Z,5.45
2023-05-19T01:01:33.882Z,4.88
2023-05-19T01:04:03.600Z,5.00
2023-05-19T01:06:31.084Z,5.43
2023-05-19T01:08:58.616Z,5.03
2023-05-19T01:11:26.105Z,5.07
2023-05-19T01:13:53.660Z,6.18
2023-05-19T01:16:30.630Z,5.85
2023-05-19T01:19:03.748Z,5.53
2023-05-19T01:21:58.429Z,5.50
2023-05-19T01:24:46.729Z,5.80
2023-05-19T01:27:42.749Z,5.95
2023-05-19T01:30:23.662Z,5.80
2023-05-19T01:32:54.198Z,5.95
2023-05-19T01:35:24.934Z,6.50
2023-05-19T01:37:55.394Z,6.75
2023-05-19T01:40:24.219Z,6.40
2023-05-19T01:42:56.145Z,6.15
2023-05-19T01:45:26.727Z,5.80
2023-05-19T01:47:56.618Z,6.40
2023-05-19T01:50:24.420Z,5.80
2023-05-19T01:52:52.408Z,5.60
2023-05-19T01:55:21.148Z,5.70
2023-05-19T01:58:01.538Z,5.70
2023-05-19T02:00:41.496Z,6.50
2023-05-19T02:03:22.359Z,6.47
2023-05-19T02:05:56.475Z,6.90
2023-05-19T02:08:28.146Z,6.63
2023-05-19T02:11:01.658Z,5.80
2023-05-19T02:13:34.929Z,7.13
2023-05-19T02:16:06.195Z,7.18
2023-05-19T02:18:35.259Z,6.90
2023-05-19T02:21:05.541Z,6.30
2023-05-19T02:23:33.045Z,6.80
2023-05-19T02:26:01.017Z,7.03
2023-05-19T02:28:28.582Z,6.20
2023-05-19T02:30:56.091Z,6.72
2023-05-19T02:33:28.345Z,6.57
2023-05-19T02:35:57.976Z,6.32
2023-05-19T02:38:25.736Z,6.45
2023-05-19T02:40:54.674Z,6.75
2023-05-19T02:43:22.166Z,6.90
2023-05-19T02:45:52.793Z,7.00
2023-05-19T02:48:20.330Z,6.95
2023-05-19T02:50:49.150Z,6.88
2023-05-19T02:53:16.667Z,6.75
2023-05-19T02:55:44.139Z,6.80
2023-05-19T02:58:11.750Z,7.03
2023-05-19T03:00:39.207Z,7.20
2023-05-19T03:03:06.774Z,7.07
2023-05-19T03:05:34.263Z,6.07
2023-05-19T03:08:03.087Z,8.00
2023-05-19T03:10:31.488Z,6.80
2023-05-19T03:12:59.147Z,6.80
2023-05-19T03:15:26.610Z,7.43
2023-05-19T03:17:54.239Z,7.28
2023-05-19T03:20:21.881Z,7.03
2023-05-19T03:22:49.364Z,6.90
2023-05-19T03:25:19.364Z,8.15
2023-05-19T03:27:46.849Z,9.45
2023-05-19T03:30:15.077Z,7.05
2023-05-19T03:32:42.659Z,7.63
2023-05-19T03:35:10.705Z,7.35
2023-05-19T03:37:38.166Z,7.68
2023-05-19T03:40:07.206Z,7.97
2023-05-19T03:42:36.039Z,7.97
2023-05-19T03:45:03.539Z,7.25
2023-05-19T03:47:31.704Z,7.05
2023-05-19T03:49:59.240Z,8.20
2023-05-19T03:52:26.732Z,7.30
2023-05-19T03:54:54.201Z,7.10
2023-05-19T03:57:22.461Z,7.90
2023-05-19T03:59:51.342Z,7.47
2023-05-19T04:02:18.825Z,7.80
2023-05-19T04:04:46.423Z,7.38
2023-05-19T04:07:13.968Z,7.60
2023-05-19T04:09:41.506Z,7.40
2023-05-19T04:12:09.472Z,7.63
2023-05-19T04:14:36.992Z,6.45
2023-05-19T04:17:06.165Z,7.57
2023-05-19T04:19:33.662Z,7.32
2023-05-19T04:22:01.146Z,7.57
2023-05-19T04:24:28.828Z,7.68
2023-05-19T04:26:56.674Z,7.78
2023-05-19T04:29:24.192Z,7.47
2023-05-19T04:31:54.738Z,7.30
2023-05-19T04:34:23.590Z,7.88
2023-05-19T04:36:53.199Z,7.68
2023-05-19T04:39:21.529Z,8.25
2023-05-19T04:41:49.033Z,7.95
2023-05-19T04:44:18.050Z,7.80
2023-05-19T04:46:46.029Z,7.68
2023-05-19T04:49:14.423Z,7.18
2023-05-19T04:51:43.213Z,7.20
2023-05-19T04:54:10.769Z,7.30
2023-05-19T04:56:38.324Z,7.63
2023-05-19T04:59:06.778Z,7.80
2023-05-19T05:01:34.341Z,8.15
2023-05-19T05:04:02.718Z,8.20
2023-05-19T05:06:31.532Z,8.20
2023-05-19T05:09:00.862Z,8.90
2023-05-19T05:11:29.037Z,9.60
2023-05-19T05:13:58.001Z,8.63
2023-05-19T05:16:27.004Z,9.23
2023-05-19T05:18:55.040Z,9.55
2023-05-19T05:21:23.677Z,8.73
2023-05-19T05:23:52.232Z,8.90
2023-05-19T05:26:23.061Z,8.20
2023-05-19T05:28:50.875Z,8.38
2023-05-19T05:31:18.477Z,7.70
2023-05-19T05:33:46.467Z,7.38
2023-05-19T05:36:14.627Z,7.90
2023-05-19T05:38:42.170Z,7.55
2023-05-19T05:41:09.709Z,7.80
2023-05-19T05:43:38.570Z,6.93
2023-05-19T05:46:06.313Z,6.88
2023-05-19T05:48:34.549Z,6.82
2023-05-19T05:51:02.595Z,6.95
2023-05-19T05:53:32.208Z,7.43
2023-05-19T05:56:00.421Z,8.18
2023-05-19T05:58:28.824Z,8.57
2023-05-19T06:00:58.526Z,8.00
2023-05-19T06:03:26.737Z,7.90
2023-05-19T06:05:54.370Z,8.27
2023-05-19T06:08:21.989Z,7.35
2023-05-19T06:10:49.639Z,7.70
2023-05-19T06:13:22.166Z,7.10
2023-05-19T06:15:49.752Z,6.45
2023-05-19T06:18:18.698Z,7.20
2023-05-19T06:20:46.231Z,7.03
2023-05-19T06:23:13.751Z,7.35
2023-05-19T06:25:41.461Z,6.80
2023-05-19T06:28:09.045Z,6.68
2023-05-19T06:30:37.139Z,6.88
2023-05-19T06:33:04.966Z,6.35
2023-05-19T06:35:33.869Z,5.85
2023-05-19T06:38:01.407Z,6.18
2023-05-19T06:40:28.950Z,6.20
2023-05-19T06:42:56.480Z,7.25
2023-05-19T06:45:24.633Z,6.43
2023-05-19T06:47:52.298Z,5.68
2023-05-19T06:50:19.983Z,6.00
2023-05-19T06:52:48.802Z,6.10
2023-05-19T06:55:16.294Z,5.75
2023-05-19T06:57:44.131Z,5.50
2023-05-19T07:00:15.878Z,6.03
2023-05-19T07:02:45.831Z,6.18
2023-05-19T07:05:13.524Z,6.07
2023-05-19T07:07:41.795Z,5.68
2023-05-19T07:10:12.025Z,5.82
2023-05-19T07:12:39.640Z,5.15
2023-05-19T07:15:08.185Z,4.68
2023-05-19T07:17:35.765Z,5.00
2023-05-19T07:20:06.552Z,4.60
2023-05-19T07:22:35.061Z,4.22
2023-05-19T07:25:02.549Z,4.45
2023-05-19T07:27:31.372Z,4.50
2023-05-19T07:29:59.817Z,4.22
2023-05-19T07:32:27.346Z,3.90
2023-05-19T07:34:55.021Z,4.15
2023-05-19T07:37:22.633Z,4.18
2023-05-19T07:39:50.097Z,3.80
2023-05-19T07:42:17.576Z,4.25
2023-05-19T07:44:46.479Z,4.28
2023-05-19T07:47:13.993Z,3.40
2023-05-19T07:49:41.481Z,3.85
2023-05-19T07:52:09.118Z,4.03
2023-05-19T07:54:36.631Z,3.78
2023-05-19T07:57:04.338Z,3.38
2023-05-19T07:59:32.388Z,3.33
2023-05-19T08:02:01.299Z,3.53
2023-05-19T08:04:28.886Z,3.65
2023-05-19T08:06:56.391Z,3.72
2023-05-19T08:09:23.879Z,3.40
2023-05-19T08:11:51.474Z,3.40
2023-05-19T08:14:19.485Z,3.17
2023-05-19T08:16:47.042Z,3.50
2023-05-19T08:19:16.070Z,3.63
2023-05-19T08:21:44.557Z,4.05
2023-05-19T08:24:12.456Z,3.42
2023-05-19T08:26:40.204Z,3.22
2023-05-19T08:29:07.713Z,3.08
2023-05-19T08:31:35.262Z,3.78
2023-05-19T08:34:03.407Z,3.75
2023-05-19T08:36:33.888Z,3.42
2023-05-19T08:39:01.417Z,3.85
2023-05-19T08:41:28.929Z,2.90
2023-05-19T08:43:56.466Z,2.67
2023-05-19T08:46:26.371Z,2.67
2023-05-19T08:48:58.201Z,3.47
2023-05-19T08:51:32.155Z,3.22
2023-05-19T08:54:10.061Z,3.20
2023-05-19T08:56:39.096Z,2.90
2023-05-19T08:59:08.748Z,2.38
2023-05-19T09:04:05.692Z,3.03
2023-05-19T09:06:33.313Z,3.28
2023-05-19T09:09:02.289Z,3.05
2023-05-19T09:11:30.331Z,3.00
2023-05-19T09:13:57.846Z,3.05
2023-05-19T09:16:27.897Z,3.10
2023-05-19T09:18:58.912Z,2.60
2023-05-19T09:21:31.397Z,2.80
2023-05-19T09:23:59.318Z,2.50
2023-05-19T09:26:37.455Z,2.92
2023-05-19T09:29:11.979Z,2.63
2023-05-19T09:31:39.570Z,2.65
2023-05-19T09:34:13.092Z,2.55
2023-05-19T09:36:42.103Z,2.40
2023-05-19T09:39:16.364Z,2.30
2023-05-19T09:41:45.990Z,2.60
2023-05-19T09:44:14.210Z,2.60
2023-05-19T09:46:48.750Z,2.20
2023-05-19T09:49:20.461Z,2.72
2023-05-19T09:51:50.588Z,2.83
2023-05-19T09:54:18.299Z,3.05
2023-05-19T09:56:47.140Z,2.42
2023-05-19T09:59:16.292Z,2.65
2023-05-19T10:01:46.423Z,2.65
2023-05-19T10:04:16.581Z,2.35
2023-05-19T10:06:46.113Z,2.67
2023-05-19T10:09:14.117Z,2.67
2023-05-19T10:11:42.758Z,2.70
2023-05-19T10:14:11.698Z,2.42
2023-05-19T10:16:39.879Z,2.25
2023-05-19T10:19:08.857Z,2.30
2023-05-19T10:21:36.502Z,2.60
2023-05-19T10:24:04.237Z,2.80
2023-05-19T10:26:33.640Z,2.20
2023-05-19T10:29:03.130Z,2.60
2023-05-19T10:31:34.649Z,2.40
2023-05-19T10:34:15.140Z,2.70
2023-05-19T10:36:47.489Z,2.53
2023-05-19T10:39:20.015Z,2.70
2023-05-19T10:41:54.788Z,2.70
2023-05-19T10:44:32.558Z,2.72
2023-05-19T10:47:01.564Z,3.80
2023-05-19T10:49:29.128Z,2.72
2023-05-19T10:51:57.685Z,2.45
2023-05-19T10:54:43.164Z,2.83
2023-05-19T10:57:15.665Z,2.70
2023-05-19T10:59:44.524Z,3.47
2023-05-19T11:02:41.117Z,2.53
2023-05-19T11:05:10.525Z,3.05
2023-05-19T11:07:38.207Z,2.47
2023-05-19T11:10:09.329Z,2.33
2023-05-19T11:12:44.218Z,2.55
2023-05-19T11:17:43.337Z,2.75
2023-05-19T11:20:22.865Z,2.78
2023-05-19T11:23:06.977Z,2.83
2023-05-19T11:25:46.686Z,2.67
2023-05-19T11:28:17.230Z,2.63
2023-05-19T11:30:46.436Z,2.88
2023-05-19T11:33:15.444Z,2.53
2023-05-19T11:35:44.497Z,2.65
2023-05-19T11:38:12.405Z,2.55
2023-05-19T11:40:42.638Z,2.95
2023-05-19T11:43:10.159Z,2.65
2023-05-19T11:45:37.798Z,2.58
2023-05-19T11:48:06.933Z,2.50
2023-05-19T11:50:38.202Z,2.55
2023-05-19T11:53:05.902Z,2.55
2023-05-19T11:55:33.806Z,2.42
2023-05-19T11:58:04.707Z,3.10
2023-05-19T12:00:37.547Z,3.40
2023-05-19T12:03:05.888Z,3.70
2023-05-19T12:05:37.987Z,3.60
2023-05-19T12:08:08.705Z,2.65
2023-05-19T12:10:36.546Z,2.33
2023-05-19T12:13:04.499Z,2.30
2023-05-19T12:15:32.617Z,2.47
2023-05-19T12:18:01.977Z,2.50
2023-05-19T12:20:32.287Z,3.00
2023-05-19T12:23:01.471Z,2.70
2023-05-19T12:25:31.954Z,3.00
2023-05-19T12:28:00.582Z,2.40
2023-05-19T12:30:29.178Z,2.65
2023-05-19T12:32:57.932Z,2.50
2023-05-19T12:35:28.767Z,2.30
2023-05-19T12:37:57.746Z,2.28
2023-05-19T12:40:26.126Z,2.17
2023-05-19T12:42:58.842Z,2.42
2023-05-19T12:45:28.120Z,2.83
2023-05-19T12:47:56.517Z,2.72
2023-05-19T12:50:31.530Z,2.63
2023-05-19T12:52:59.786Z,3.40
2023-05-19T12:55:27.676Z,3.25
2023-05-19T12:57:58.013Z,2.40
2023-05-19T13:00:28.953Z,2.00
2023-05-19T13:02:59.661Z,2.47
2023-05-19T13:05:28.316Z,2.63
2023-05-19T13:08:00.189Z,2.40
2023-05-19T13:10:28.692Z,2.55
2023-05-19T13:12:58.850Z,2.20
2023-05-19T13:15:27.677Z,2.10
2023-05-19T13:17:55.912Z,2.50
2023-05-19T13:20:24.326Z,2.45
2023-05-19T13:22:53.410Z,2.50
2023-05-19T13:25:21.328Z,2.10
2023-05-19T13:27:49.622Z,2.33
2023-05-19T13:30:19.025Z,2.22
2023-05-19T13:32:47.032Z,2.55
2023-05-19T13:35:15.420Z,2.40
2023-05-19T13:37:49.344Z,2.53
2023-05-19T13:40:17.936Z,2.30
2023-05-19T13:42:45.819Z,2.63
2023-05-19T13:45:13.402Z,2.22
2023-05-19T13:47:42.460Z,1.88
2023-05-19T13:50:10.530Z,2.63
2023-05-19T13:52:37.988Z,2.38
2023-05-19T13:55:07.350Z,2.20
2023-05-19T13:57:35.315Z,2.20
2023-05-19T14:00:04.553Z,2.70
2023-05-19T14:02:32.806Z,2.22
2023-05-19T14:05:01.778Z,2.53
2023-05-19T14:07:29.295Z,2.13
2023-05-19T14:09:56.904Z,2.28
2023-05-19T14:12:33.896Z,3.63
2023-05-19T14:15:09.056Z,2.50
2023-05-19T14:17:37.344Z,2.17
2023-05-19T14:20:07.519Z,2.25
2023-05-19T14:22:35.160Z,2.40
2023-05-19T14:25:03.015Z,2.20
2023-05-19T14:27:30.548Z,2.10
2023-05-19T14:29:58.332Z,2.45
2023-05-19T14:32:28.664Z,2.63
2023-05-19T14:34:57.732Z,2.28
2023-05-19T14:37:28.813Z,2.25
2023-05-19T14:39:58.317Z,2.40
2023-05-19T14:42:26.013Z,2.45
2023-05-19T14:44:53.618Z,2.58
2023-05-19T14:47:21.277Z,4.95
2023-05-19T14:49:48.884Z,2.95
2023-05-19T14:52:17.718Z,3.25
2023-05-19T14:54:46.597Z,2.35
2023-05-19T14:57:14.235Z,2.28
2023-05-19T14:59:41.925Z,2.30
2023-05-19T15:02:09.729Z,2.53
2023-05-19T15:04:37.248Z,2.22
2023-05-19T15:07:10.396Z,2.60
2023-05-19T15:09:38.781Z,2.10
2023-05-19T15:12:07.731Z,2.58
2023-05-19T15:14:35.364Z,2.95
2023-05-19T15:17:02.887Z,4.30
2023-05-19T15:19:30.547Z,6.30
2023-05-19T15:21:58.063Z,3.17
2023-05-19T15:24:28.097Z,2.42
2023-05-19T15:26:56.072Z,2.08
2023-05-19T15:29:24.898Z,2.80
2023-05-19T15:31:52.704Z,2.20
2023-05-19T15:34:20.764Z,3.08
2023-05-19T15:36:48.423Z,2.20
2023-05-19T15:39:15.937Z,2.25
2023-05-19T15:41:43.471Z,2.50
2023-05-19T15:44:11.214Z,2.58
2023-05-19T15:46:40.220Z,2.58
2023-05-19T15:49:07.765Z,2.40
2023-05-19T15:51:35.550Z,2.42
2023-05-19T15:54:03.062Z,2.33
2023-05-19T15:56:30.589Z,2.38
2023-05-19T15:58:58.083Z,2.38
2023-05-19T16:01:26.284Z,2.30
2023-05-19T16:03:55.502Z,2.00
2023-05-19T16:06:24.512Z,2.13
2023-05-19T16:08:52.030Z,5.22
2023-05-19T16:11:20.568Z,2.40
2023-05-19T16:13:48.113Z,2.20
2023-05-19T16:16:15.761Z,2.50
2023-05-19T16:18:44.159Z,2.67
2023-05-19T16:21:13.085Z,2.17
2023-05-19T16:23:40.637Z,2.83
2023-05-19T16:26:08.129Z,2.78
2023-05-19T16:28:35.712Z,2.60
2023-05-19T16:31:03.226Z,2.80
2023-05-19T16:33:30.723Z,2.70
2023-05-19T16:35:59.732Z,2.40
2023-05-19T16:38:28.526Z,2.42
2023-05-19T16:40:56.029Z,2.53
2023-05-19T16:43:23.532Z,2.08
2023-05-19T16:45:51.026Z,3.22
2023-05-19T16:48:18.608Z,2.55
2023-05-19T16:50:48.766Z,2.17
2023-05-19T16:53:16.283Z,2.60
2023-05-19T16:55:45.127Z,2.67
2023-05-19T16:58:12.613Z,2.35
2023-05-19T17:00:40.174Z,2.55
2023-05-19T17:03:07.761Z,2.50
2023-05-19T17:05:36.132Z,2.25
2023-05-19T17:08:03.690Z,2.60
2023-05-19T17:10:31.343Z,2.50
2023-05-19T17:13:00.359Z,3.55
2023-05-19T17:15:28.026Z,2.97
2023-05-19T17:17:55.547Z,3.10
2023-05-19T17:20:23.073Z,3.33
2023-05-19T17:22:50.574Z,4.55
2023-05-19T17:25:18.287Z,2.50
2023-05-19T17:27:46.152Z,2.78
2023-05-19T17:30:15.294Z,3.15
2023-05-19T17:32:43.048Z,3.08
2023-05-19T17:35:10.911Z,2.50
2023-05-19T17:37:38.422Z,2.95
2023-05-19T17:40:07.132Z,3.00
2023-05-19T17:42:34.646Z,2.75
2023-05-19T17:45:04.227Z,2.70
2023-05-19T17:47:33.170Z,2.60
2023-05-19T17:50:00.729Z,2.70
2023-05-19T17:52:28.711Z,2.30
2023-05-19T17:54:56.725Z,2.50
2023-05-19T17:57:26.404Z,3.25
2023-05-19T17:59:54.411Z,2.97
2023-05-19T18:02:22.348Z,2.80
2023-05-19T18:04:51.862Z,2.63
2023-05-19T18:07:20.770Z,2.67
2023-05-19T18:09:51.579Z,2.60
2023-05-19T18:12:19.088Z,2.72
2023-05-19T18:14:46.602Z,2.38
2023-05-19T18:17:14.096Z,2.75
2023-05-19T18:19:41.668Z,2.33
2023-05-19T18:22:12.863Z,2.22
2023-05-19T18:24:40.369Z,2.58
2023-05-19T18:27:10.856Z,2.38
2023-05-19T18:29:38.721Z,2.10
2023-05-19T18:32:07.124Z,2.58
2023-05-19T18:34:34.654Z,2.50
2023-05-19T18:37:02.147Z,3.42
2023-05-19T18:39:31.163Z,2.42
2023-05-19T18:41:58.665Z,2.35
2023-05-19T18:44:26.154Z,2.60
2023-05-19T18:46:53.749Z,2.50
2023-05-19T18:49:21.356Z,3.30
2023-05-19T18:51:49.662Z,3.40
2023-05-19T18:54:17.172Z,2.50
2023-05-19T18:56:46.031Z,2.45
2023-05-19T18:59:13.568Z,2.33
2023-05-19T19:01:41.304Z,2.47
2023-05-19T19:04:09.053Z,2.40
2023-05-19T19:06:36.537Z,2.55
2023-05-19T19:09:04.113Z,2.63
2023-05-19T19:11:31.862Z,2.53
2023-05-19T19:14:01.395Z,2.47
2023-05-19T19:16:29.026Z,2.38
2023-05-19T19:18:56.682Z,2.67
2023-05-19T19:21:24.437Z,2.78
2023-05-19T19:23:54.101Z,3.13
2023-05-19T19:26:21.796Z,2.80
2023-05-19T19:28:49.283Z,3.05
2023-05-19T19:31:18.146Z,2.50
2023-05-19T19:33:45.765Z,2.25
2023-05-19T19:36:13.301Z,2.20
2023-05-19T19:38:40.829Z,2.70
2023-05-19T19:41:08.397Z,2.17
2023-05-19T19:43:35.890Z,2.78
2023-05-19T19:46:06.936Z,2.03
2023-05-19T19:48:36.028Z,2.35
2023-05-19T19:51:03.542Z,2.30
2023-05-19T19:53:31.096Z,2.47
2023-05-19T19:55:59.763Z,2.20
2023-05-19T19:58:28.189Z,2.47
2023-05-19T20:00:59.034Z,2.58
2023-05-19T20:03:27.211Z,2.20
2023-05-19T20:05:57.335Z,2.30
2023-05-19T20:08:25.358Z,2.20
2023-05-19T20:10:53.047Z,2.30
2023-05-19T20:13:20.934Z,2.20
2023-05-19T20:15:48.809Z,2.30
2023-05-19T20:18:16.462Z,2.40
2023-05-19T20:20:43.961Z,2.50
2023-05-19T20:23:13.220Z,2.58
2023-05-19T20:25:57.836Z,2.88
2023-05-19T20:28:26.374Z,3.20
2023-05-19T20:30:53.888Z,3.55
2023-05-19T20:33:21.400Z,3.10
2023-05-19T20:35:49.211Z,3.60
2023-05-19T20:38:18.101Z,3.45
2023-05-19T20:40:45.915Z,3.80
2023-05-19T20:43:13.521Z,2.97
2023-05-19T20:45:43.843Z,3.20
2023-05-19T20:48:11.552Z,3.30
2023-05-19T20:50:40.423Z,3.40
2023-05-19T20:53:08.070Z,3.17
2023-05-19T20:55:37.764Z,3.25
2023-05-19T20:58:05.338Z,3.10
2023-05-19T21:00:33.176Z,3.08
2023-05-19T21:03:01.381Z,3.25
2023-05-19T21:05:29.016Z,3.25
2023-05-19T21:07:56.531Z,3.15
2023-05-19T21:10:24.182Z,3.05
2023-05-19T21:12:53.043Z,3.38
2023-05-19T21:15:20.618Z,3.28
2023-05-19T21:17:48.123Z,3.58
2023-05-19T21:20:15.660Z,3.00
2023-05-19T21:22:43.106Z,3.17
2023-05-19T21:25:11.050Z,3.17
2023-05-19T21:27:39.429Z,3.72
2023-05-19T21:30:09.619Z,3.38
2023-05-19T21:32:37.133Z,3.28
2023-05-19T21:35:05.996Z,3.10
2023-05-19T21:37:33.561Z,3.08
2023-05-19T21:40:01.173Z,2.67
2023-05-19T21:42:28.683Z,3.00
2023-05-19T21:44:56.374Z,3.45
2023-05-19T21:47:25.220Z,3.50
2023-05-19T21:49:52.769Z,3.53
2023-05-19T21:52:20.452Z,3.60
2023-05-19T21:54:48.010Z,3.60
2023-05-19T21:57:15.551Z,4.10
2023-05-19T21:59:43.916Z,4.05
2023-05-19T22:02:11.545Z,4.13
2023-05-19T22:04:42.397Z,4.18
2023-05-19T22:07:09.922Z,4.30
2023-05-19T22:09:37.917Z,4.47
2023-05-19T22:12:06.389Z,3.78
2023-05-19T22:14:33.898Z,3.92
2023-05-19T22:17:01.404Z,3.58
2023-05-19T22:19:28.989Z,3.95
2023-05-19T22:22:09.612Z,4.05
2023-05-19T22:24:41.145Z,3.45
2023-05-19T22:27:09.281Z,3.72
2023-05-19T22:29:38.249Z,3.67
2023-05-19T22:32:07.525Z,3.70
2023-05-19T22:34:35.189Z,3.83
2023-05-19T22:37:04.177Z,3.72
2023-05-19T22:39:31.741Z,3.80
2023-05-19T22:41:59.274Z,3.72
2023-05-19T22:44:26.869Z,3.33
2023-05-19T22:46:54.393Z,3.50
2023-05-19T22:49:22.821Z,3.60
2023-05-19T22:51:50.867Z,3.80
2023-05-19T22:54:19.777Z,3.40
2023-05-19T22:56:48.737Z,3.60
2023-05-19T22:59:17.599Z,3.47
2023-05-19T23:01:46.419Z,3.33
2023-05-19T23:04:15.063Z,3.35
2023-05-19T23:06:42.715Z,4.25
2023-05-19T23:09:10.203Z,6.40
2023-05-19T23:11:39.121Z,6.65
2023-05-19T23:14:06.649Z,5.85
2023-05-19T23:16:34.153Z,5.28
2023-05-19T23:19:01.741Z,4.53
2023-05-19T23:21:31.188Z,4.20
2023-05-19T23:23:59.346Z,4.97
2023-05-19T23:26:27.324Z,9.73
2023-05-19T23:28:56.124Z,9.10
2023-05-19T23:31:23.642Z,6.97
2023-05-19T23:33:51.161Z,5.20
2023-05-19T23:36:19.180Z,5.15
2023-05-19T23:38:46.649Z,4.65
2023-05-19T23:41:14.099Z,4.03
2023-05-19T23:43:41.553Z,4.72
2023-05-19T23:46:10.584Z,4.70
2023-05-19T23:48:38.211Z,4.63
2023-05-19T23:51:06.050Z,4.40
2023-05-19T23:53:33.513Z,4.47
2023-05-19T23:56:01.008Z,4.18
2023-05-19T23:58:28.627Z,5.00
